createdAt,value
2018-09-30T00:03:31.736Z,101697.00
2018-09-30T00:08:24.966Z,101700.00
2018-09-30T00:13:18.208Z,101688.00
2018-09-30T00:18:11.478Z,101687.00
2018-09-30T00:23:04.760Z,101677.00
2018-09-30T00:27:58.025Z,101674.00
2018-09-30T00:32:51.586Z,101667.00
2018-09-30T00:37:44.822Z,101665.00
2018-09-30T00:42:38.101Z,101666.00
2018-09-30T00:47:31.347Z,101653.00
2018-09-30T00:52:25.200Z,101648.00
2018-09-30T00:57:18.511Z,101640.00
2018-09-30T01:02:11.785Z,101625.00
2018-09-30T01:07:05.345Z,101629.00
2018-09-30T01:11:58.597Z,101626.00
2018-09-30T01:16:51.856Z,101611.00
2018-09-30T01:21:45.174Z,101613.00
2018-09-30T01:26:38.409Z,101601.00
2018-09-30T01:31:31.663Z,101597.00
2018-09-30T01:36:24.924Z,101584.00
2018-09-30T01:41:18.188Z,101587.00
2018-09-30T01:46:11.439Z,101581.00
2018-09-30T01:51:04.680Z,101575.00
2018-09-30T01:55:57.970Z,101574.00
2018-09-30T02:00:51.192Z,101573.00
2018-09-30T02:05:44.469Z,101561.00
2018-09-30T02:10:37.693Z,101557.00
2018-09-30T02:15:30.944Z,101557.00
2018-09-30T02:20:24.204Z,101557.00
2018-09-30T02:25:17.540Z,101549.00
2018-09-30T02:30:10.776Z,101543.00
2018-09-30T02:35:04.138Z,101540.00
2018-09-30T02:39:57.371Z,101546.00
2018-09-30T02:44:50.600Z,101543.00
2018-09-30T02:49:43.808Z,101545.00
2018-09-30T02:54:37.704Z,101541.00
2018-09-30T02:59:30.918Z,101524.00
2018-09-30T03:04:24.198Z,101528.00
2018-09-30T03:09:18.471Z,101514.00
2018-09-30T03:14:13.070Z,101508.00
2018-09-30T03:19:06.351Z,101509.00
2018-09-30T03:23:59.593Z,101494.00
2018-09-30T03:28:52.894Z,101492.00
2018-09-30T03:33:46.124Z,101482.00
2018-09-30T03:38:39.356Z,101475.00
2018-09-30T03:43:32.593Z,101479.00
2018-09-30T03:48:26.593Z,101479.00
2018-09-30T03:53:19.836Z,101475.00
2018-09-30T03:58:13.121Z,101477.00
2018-09-30T04:03:06.461Z,101465.00
2018-09-30T04:07:59.707Z,101458.00
2018-09-30T04:12:53.503Z,101444.00
2018-09-30T04:17:46.759Z,101437.00
2018-09-30T04:22:40.486Z,101431.00
2018-09-30T04:27:33.739Z,101438.00
2018-09-30T04:32:26.981Z,101434.00
2018-09-30T04:37:20.238Z,101428.00
2018-09-30T04:42:13.493Z,101437.00
2018-09-30T04:47:06.812Z,101431.00
2018-09-30T04:52:00.027Z,101435.00
2018-09-30T04:56:53.317Z,101434.00
2018-09-30T05:01:46.549Z,101428.00
2018-09-30T05:06:39.779Z,101421.00
2018-09-30T05:11:33.008Z,101420.00
2018-09-30T05:16:26.279Z,101416.00
2018-09-30T05:21:19.548Z,101419.00
2018-09-30T05:26:12.827Z,101422.00
2018-09-30T05:31:06.139Z,101418.00
2018-09-30T05:35:59.376Z,101423.00
2018-09-30T05:40:52.623Z,101409.00
2018-09-30T05:45:45.877Z,101409.00
2018-09-30T05:50:39.136Z,101402.00
2018-09-30T05:55:32.364Z,101403.00
2018-09-30T06:00:25.582Z,101400.00
2018-09-30T06:05:18.836Z,101400.00
2018-09-30T06:10:12.125Z,101405.00
2018-09-30T06:15:05.416Z,101420.00
2018-09-30T06:19:58.748Z,101417.00
2018-09-30T06:24:51.991Z,101419.00
2018-09-30T06:29:45.271Z,101421.00
2018-09-30T06:34:38.536Z,101425.00
2018-09-30T06:39:31.902Z,101416.00
2018-09-30T06:44:25.929Z,101417.00
2018-09-30T06:49:19.180Z,101414.00
2018-09-30T06:54:13.127Z,101408.00
2018-09-30T06:59:06.451Z,101398.00
2018-09-30T07:03:59.685Z,101392.00
2018-09-30T07:08:52.916Z,101391.00
2018-09-30T07:13:46.157Z,101388.00
2018-09-30T07:18:39.403Z,101392.00
2018-09-30T07:23:32.644Z,101397.00
2018-09-30T07:28:25.909Z,101397.00
2018-09-30T07:33:19.143Z,101400.00
2018-09-30T07:38:12.404Z,101385.00
2018-09-30T07:43:05.622Z,101393.00
2018-09-30T07:47:59.504Z,101382.00
2018-09-30T07:52:53.411Z,101381.00
2018-09-30T07:57:46.634Z,101363.00
2018-09-30T08:02:39.940Z,101361.00
2018-09-30T08:07:33.205Z,101350.00
2018-09-30T08:12:26.747Z,101354.00
2018-09-30T08:17:20.107Z,101347.00
2018-09-30T08:22:13.321Z,101348.00
2018-09-30T08:27:06.655Z,101351.00
2018-09-30T08:32:00.530Z,101346.00
2018-09-30T08:36:53.785Z,101343.00
2018-09-30T08:41:47.057Z,101341.00
2018-09-30T08:46:40.416Z,101342.00
2018-09-30T08:51:33.687Z,101340.00
2018-09-30T08:56:26.929Z,101335.00
2018-09-30T09:01:20.167Z,101330.00
2018-09-30T09:06:13.408Z,101330.00
2018-09-30T09:11:07.003Z,101327.00
2018-09-30T09:16:00.198Z,101328.00
2018-09-30T09:20:53.511Z,101312.00
2018-09-30T09:25:46.803Z,101305.00
2018-09-30T09:30:40.381Z,101300.00
2018-09-30T09:35:33.641Z,101299.00
2018-09-30T09:40:27.803Z,101303.00
2018-09-30T09:45:21.055Z,101290.00
2018-09-30T09:50:14.308Z,101291.00
2018-09-30T09:55:07.631Z,101292.00
2018-09-30T10:00:00.909Z,101286.00
2018-09-30T10:04:54.189Z,101277.00
2018-09-30T10:09:47.425Z,101267.00
2018-09-30T10:14:40.658Z,101266.00
2018-09-30T10:19:33.933Z,101263.00
2018-09-30T10:24:27.157Z,101259.00
2018-09-30T10:29:20.479Z,101259.00
2018-09-30T10:34:13.707Z,101254.00
2018-09-30T10:39:09.330Z,101236.00
2018-09-30T10:44:02.561Z,101231.00
2018-09-30T10:48:55.814Z,101225.00
2018-09-30T10:53:49.076Z,101219.00
2018-09-30T10:58:42.329Z,101216.00
2018-09-30T11:03:36.311Z,101215.00
2018-09-30T11:08:29.561Z,101210.00
2018-09-30T11:13:23.356Z,101205.00
2018-09-30T11:18:16.606Z,101190.00
2018-09-30T11:23:09.861Z,101183.00
2018-09-30T11:28:03.116Z,101176.00
2018-09-30T11:32:56.356Z,101166.00
2018-09-30T11:37:49.604Z,101164.00
2018-09-30T11:42:42.915Z,101157.00
2018-09-30T11:47:36.175Z,101146.00
2018-09-30T11:52:29.493Z,101135.00
2018-09-30T11:57:22.733Z,101126.00
2018-09-30T12:02:16.109Z,101124.00
2018-09-30T12:07:16.410Z,101120.00
2018-09-30T12:12:09.809Z,101120.00
2018-09-30T12:17:03.046Z,101117.00
2018-09-30T12:21:56.310Z,101101.00
2018-09-30T12:26:49.541Z,101089.00
2018-09-30T12:31:42.792Z,101080.00
2018-09-30T12:36:36.207Z,101079.00
2018-09-30T12:41:29.626Z,101071.00
2018-09-30T12:46:22.853Z,101071.00
2018-09-30T12:51:16.089Z,101064.00
2018-09-30T12:56:09.437Z,101054.00
2018-09-30T13:01:02.699Z,101051.00
2018-09-30T13:05:56.065Z,101039.00
2018-09-30T13:10:49.584Z,101028.00
2018-09-30T13:15:42.867Z,101030.00
2018-09-30T13:20:36.167Z,101025.00
2018-09-30T13:25:29.384Z,101015.00
2018-09-30T13:30:22.655Z,101021.00
2018-09-30T13:35:15.904Z,101012.00
2018-09-30T13:40:09.222Z,101011.00
2018-09-30T13:45:02.465Z,101012.00
2018-09-30T13:49:55.682Z,101005.00
2018-09-30T13:54:49.064Z,101003.00
2018-09-30T13:59:42.355Z,100998.00
2018-09-30T14:04:35.597Z,100990.00
2018-09-30T14:09:28.819Z,100985.00
2018-09-30T14:14:22.091Z,100984.00
2018-09-30T14:19:15.332Z,100987.00
2018-09-30T14:24:09.571Z,100983.00
2018-09-30T14:29:02.837Z,100969.00
2018-09-30T14:33:56.629Z,100965.00
2018-09-30T14:38:49.888Z,100960.00
2018-09-30T14:43:43.231Z,100959.00
2018-09-30T14:48:36.645Z,100956.00
2018-09-30T14:53:29.909Z,100954.00
2018-09-30T14:58:23.840Z,100951.00
2018-09-30T15:03:17.101Z,100950.00
2018-09-30T15:08:10.346Z,100954.00
2018-09-30T15:13:03.738Z,100963.00
2018-09-30T15:17:57.715Z,100965.00
2018-09-30T15:22:51.049Z,100953.00
2018-09-30T15:27:44.315Z,100953.00
2018-09-30T15:32:38.563Z,100952.00
2018-09-30T15:37:31.846Z,100953.00
2018-09-30T15:42:25.070Z,100944.00
2018-09-30T15:47:18.298Z,100934.00
2018-09-30T15:52:11.608Z,100933.00
2018-09-30T15:57:04.864Z,100942.00
2018-09-30T16:01:58.195Z,100934.00
2018-09-30T16:06:51.455Z,100938.00
2018-09-30T16:11:44.728Z,100943.00
2018-09-30T16:16:37.987Z,100937.00
2018-09-30T16:21:31.288Z,100942.00
2018-09-30T16:26:24.639Z,100944.00
2018-09-30T16:31:17.936Z,100939.00
2018-09-30T16:36:11.231Z,100946.00
2018-09-30T16:41:04.537Z,100948.00
2018-09-30T16:45:58.370Z,100951.00
2018-09-30T16:50:51.618Z,100946.00
2018-09-30T16:55:44.895Z,100945.00
2018-09-30T17:00:38.168Z,100955.00
2018-09-30T17:05:31.539Z,100964.00
2018-09-30T17:10:24.805Z,100973.00
2018-09-30T17:15:19.782Z,100977.00
2018-09-30T17:20:13.008Z,100978.00
2018-09-30T17:25:06.324Z,100982.00
2018-09-30T17:29:59.613Z,100987.00
2018-09-30T17:34:52.876Z,100992.00
2018-09-30T17:39:46.175Z,101001.00
2018-09-30T17:44:40.102Z,101009.00
2018-09-30T17:49:33.379Z,101015.00
2018-09-30T17:54:26.665Z,101011.00
2018-09-30T17:59:19.957Z,101016.00
2018-09-30T18:04:13.442Z,101018.00
2018-09-30T18:09:09.843Z,101016.00
2018-09-30T18:14:03.402Z,101016.00
2018-09-30T18:18:56.707Z,101016.00
2018-09-30T18:23:50.822Z,101019.00
2018-09-30T18:28:43.994Z,101021.00
2018-09-30T18:33:37.338Z,101014.00
2018-09-30T18:38:30.592Z,101010.00
2018-09-30T18:43:23.847Z,101013.00
2018-09-30T18:48:17.093Z,101007.00
2018-09-30T18:53:10.505Z,101009.00
2018-09-30T18:58:03.811Z,101009.00
2018-09-30T19:02:57.195Z,101005.00
2018-09-30T19:07:50.459Z,101001.00
2018-09-30T19:12:43.842Z,100996.00
2018-09-30T19:17:37.135Z,100993.00
2018-09-30T19:22:30.467Z,100992.00
2018-09-30T19:27:23.843Z,100995.00
2018-09-30T19:32:17.217Z,100995.00
2018-09-30T19:37:10.461Z,101001.00
2018-09-30T19:42:03.721Z,100998.00
2018-09-30T19:46:56.989Z,100994.00
2018-09-30T19:51:50.243Z,101000.00
2018-09-30T19:56:43.543Z,101001.00
2018-09-30T20:01:36.960Z,101000.00
2018-09-30T20:06:30.476Z,100999.00
2018-09-30T20:11:23.817Z,101001.00
2018-09-30T20:16:17.110Z,101003.00
2018-09-30T20:21:10.359Z,101003.00
2018-09-30T20:26:04.186Z,100997.00
2018-09-30T20:30:58.410Z,100994.00
2018-09-30T20:35:51.678Z,100990.00
2018-09-30T20:40:44.943Z,100994.00
2018-09-30T20:45:39.471Z,100994.00
2018-09-30T20:50:32.861Z,100993.00
2018-09-30T20:55:34.661Z,100984.00
2018-09-30T21:00:34.470Z,100994.00
2018-09-30T21:09:56.767Z,100988.00
2018-09-30T21:14:50.076Z,100980.00
2018-09-30T21:19:43.999Z,100971.00
2018-09-30T21:24:37.285Z,100977.00
2018-09-30T21:29:50.412Z,100978.00
2018-09-30T21:34:43.650Z,100986.00
2018-09-30T21:39:38.013Z,100978.00
2018-09-30T21:44:31.291Z,100970.00
2018-09-30T21:49:24.630Z,100976.00
2018-09-30T21:54:17.905Z,100970.00
2018-09-30T21:59:11.163Z,100968.00
2018-09-30T22:04:04.395Z,100962.00
2018-09-30T22:08:57.680Z,100967.00
2018-09-30T22:13:50.952Z,100970.00
2018-09-30T22:18:44.211Z,100969.00
2018-09-30T22:23:37.482Z,100976.00
2018-09-30T22:28:30.744Z,100977.00
2018-09-30T22:33:23.994Z,100981.00
2018-09-30T22:38:17.238Z,100978.00
2018-09-30T22:43:10.624Z,100980.00
2018-09-30T22:48:03.879Z,100974.00
2018-09-30T22:52:57.220Z,100975.00
2018-09-30T22:57:50.485Z,100975.00
2018-09-30T23:02:43.757Z,100980.00
2018-09-30T23:07:37.119Z,100981.00
2018-09-30T23:12:30.465Z,100980.00
2018-09-30T23:17:23.772Z,100982.00
2018-09-30T23:22:18.128Z,100988.00
2018-09-30T23:27:11.337Z,100982.00
2018-09-30T23:32:04.594Z,100981.00
2018-09-30T23:36:57.941Z,100982.00
2018-09-30T23:41:51.192Z,100988.00
2018-09-30T23:46:44.455Z,100992.00
2018-09-30T23:51:37.771Z,100989.00
2018-09-30T23:56:31.011Z,100987.00
